Time;durP1;ratioP1;P1;durP2;ratioP2;P2;SDS_P1;SDS_P2;PMS_P1;PMS_P2;Temp;Humidity;BMP_temperature;BMP_pressure;BME280_temperature;BME280_humidity;BME280_pressure;Samples;Min_cycle;Max_cycle;Signal;HPM_P1;HPM_P2
2022/09/20 00:01:11;;;;;;;8.13;5.80;;;;;;;12.03;99.23;98602.81;4140538;28;20656;-87
2022/09/20 00:03:15;;;;;;;6.90;4.57;;;;;;;12.03;99.30;98594.16;4148683;28;20650;-87
2022/09/20 00:05:18;;;;;;;5.73;4.60;;;;;;;12.01;99.05;98598.63;4152099;28;20660;-86
2022/09/20 00:07:22;;;;;;;9.03;5.10;;;;;;;11.98;100.00;98602.28;4140232;28;20766;-86
2022/09/20 00:09:24;;;;;;;5.03;4.53;;;;;;;11.97;100.00;98590.16;4149393;28;23102;-86
2022/09/20 00:11:30;;;;;;;6.93;5.10;;;;;;;11.95;98.68;98586.81;4138636;28;20650;-86
2022/09/20 00:13:35;;;;;;;6.17;5.07;;;;;;;11.93;98.55;98583.44;4141065;28;20714;-87
2022/09/20 00:15:41;;;;;;;7.20;5.10;;;;;;;11.94;98.84;98592.13;4140553;28;20729;-87
2022/09/20 00:17:44;;;;;;;7.43;5.07;;;;;;;11.93;100.00;98593.91;4137367;28;20663;-86
2022/09/20 00:19:47;;;;;;;8.07;5.50;;;;;;;11.93;99.75;98585.22;4146579;28;21301;-86
2022/09/20 00:21:50;;;;;;;6.47;5.13;;;;;;;11.92;99.00;98589.63;4151237;28;20661;-86
2022/09/20 00:23:53;;;;;;;6.10;5.23;;;;;;;11.90;99.30;98577.59;4152634;28;21232;-86
2022/09/20 00:25:58;;;;;;;7.20;5.50;;;;;;;11.91;100.00;98585.31;4152164;28;20778;-86
2022/09/20 00:28:01;;;;;;;7.93;5.40;;;;;;;11.91;100.00;98582.72;4136715;28;20642;-86
2022/09/20 00:30:07;;;;;;;7.53;5.33;;;;;;;11.90;100.00;98583.63;4137571;28;20665;-86
2022/09/20 00:32:11;;;;;;;5.50;4.83;;;;;;;11.90;100.00;98585.44;4162245;28;21397;-86
2022/09/20 00:36:34;;;;;;;5.60;5.10;;;;;;;11.86;98.32;98600.47;4169635;28;20681;-86
2022/09/20 00:38:37;;;;;;;6.10;4.70;;;;;;;11.81;99.88;98597.31;4135057;28;21390;-87
2022/09/20 00:40:41;;;;;;;8.47;5.33;;;;;;;11.78;99.90;98591.44;4157115;28;20704;-86
2022/09/20 00:42:44;;;;;;;6.17;5.40;;;;;;;11.77;99.18;98595.00;4130834;28;20647;-86
2022/09/20 00:44:55;;;;;;;5.43;4.30;;;;;;;11.75;100.00;98598.66;4159239;28;20684;-87
2022/09/20 00:47:00;;;;;;;5.40;4.33;;;;;;;11.70;99.19;98600.72;4161244;28;20707;-86
2022/09/20 00:49:07;;;;;;;5.37;4.70;;;;;;;11.67;99.99;98600.94;4150602;28;20650;-86
2022/09/20 00:51:12;;;;;;;6.30;4.70;;;;;;;11.64;99.98;98593.28;4154604;28;20731;-86
2022/09/20 00:53:19;;;;;;;6.40;5.00;;;;;;;11.63;99.54;98596.84;4136029;28;20645;-87
2022/09/20 00:55:22;;;;;;;6.63;4.80;;;;;;;11.61;99.03;98598.72;4155006;28;21305;-86
2022/09/20 00:57:25;;;;;;;7.83;4.90;;;;;;;11.60;99.55;98597.03;4146078;28;20753;-87
2022/09/20 00:59:31;;;;;;;8.27;4.57;;;;;;;11.61;99.07;98594.31;4153419;28;20656;-86
2022/09/20 01:01:34;;;;;;;9.17;5.90;;;;;;;11.62;98.74;98596.00;4147376;28;20653;-86
2022/09/20 01:03:39;;;;;;;6.73;4.73;;;;;;;11.62;99.94;98595.16;4171293;28;20662;-86
2022/09/20 01:05:44;;;;;;;6.40;4.40;;;;;;;11.62;100.00;98598.63;4151533;28;20651;-86
2022/09/20 01:07:48;;;;;;;5.93;4.57;;;;;;;11.62;99.06;98596.00;4155461;28;20655;-87
2022/09/20 01:09:54;;;;;;;5.27;4.30;;;;;;;11.60;100.00;98597.88;4152156;28;20700;-86
2022/09/20 01:11:58;;;;;;;8.80;4.50;;;;;;;11.59;99.86;98595.34;4153988;28;20678;-86
2022/09/20 01:14:01;;;;;;;6.00;4.07;;;;;;;11.58;99.70;98589.28;4152050;28;20650;-86
2022/09/20 01:16:05;;;;;;;4.57;3.83;;;;;;;11.61;100.00;98593.50;4145518;28;21138;-86
2022/09/20 01:18:09;;;;;;;4.60;4.10;;;;;;;11.63;99.62;98599.44;4159384;28;20656;-86
2022/09/20 01:20:17;;;;;;;5.97;4.07;;;;;;;11.64;100.00;98593.28;4154620;28;20646;-86
2022/09/20 01:22:23;;;;;;;5.33;3.87;;;;;;;11.65;99.18;98605.41;4156092;28;20755;-86
2022/09/20 01:24:32;;;;;;;5.00;3.77;;;;;;;11.66;99.72;98599.25;4157350;28;20652;-87
2022/09/20 01:26:59;;;;;;;5.57;4.20;;;;;;;11.65;98.90;98593.19;4141426;28;20642;-87
2022/09/20 01:29:10;;;;;;;5.00;3.63;;;;;;;11.65;99.83;98594.94;4172386;28;20714;-87
2022/09/20 01:31:17;;;;;;;5.97;4.10;;;;;;;11.67;99.21;98593.09;4170550;28;20695;-86
2022/09/20 01:33:27;;;;;;;5.20;3.93;;;;;;;11.67;99.79;98587.88;4150614;28;20704;-87
2022/09/20 01:35:33;;;;;;;4.90;4.13;;;;;;;11.69;100.00;98586.00;4154326;28;20709;-87
2022/09/20 01:37:43;;;;;;;5.60;4.23;;;;;;;11.70;100.00;98585.88;4155390;28;20662;-87
2022/09/20 01:39:52;;;;;;;6.53;4.20;;;;;;;11.71;100.00;98576.28;4151235;28;20654;-87
2022/09/20 01:41:58;;;;;;;5.73;4.50;;;;;;;11.71;100.00;98574.47;4137871;28;20649;-86
2022/09/20 01:44:09;;;;;;;7.07;4.50;;;;;;;11.71;100.00;98578.88;4152750;28;20645;-87
2022/09/20 01:46:24;;;;;;;7.47;4.60;;;;;;;11.73;99.83;98577.84;4159393;28;20680;-86
2022/09/20 01:48:31;;;;;;;7.30;4.00;;;;;;;11.72;98.88;98581.41;4164056;28;20994;-87
2022/09/20 01:50:36;;;;;;;8.70;4.53;;;;;;;11.73;100.00;98587.44;4154722;28;20643;-86
2022/09/20 01:53:11;;;;;;;12.60;4.50;;;;;;;11.74;99.00;98589.13;4151632;28;20748;-87
2022/09/20 01:55:49;;;;;;;4.50;3.83;;;;;;;11.73;100.00;98579.59;4170314;28;20702;-86
2022/09/20 01:58:34;;;;;;;5.50;4.07;;;;;;;11.74;100.00;98576.06;4125777;28;20693;-87
2022/09/20 02:00:46;;;;;;;7.30;3.57;;;;;;;11.71;100.00;98589.34;4146172;28;20649;-87
2022/09/20 02:03:11;;;;;;;5.60;4.03;;;;;;;11.71;100.00;98579.72;4146934;28;20637;-86
2022/09/20 02:05:40;;;;;;;5.33;4.30;;;;;;;11.70;99.30;98587.66;4139705;28;20651;-86
2022/09/20 02:07:57;;;;;;;5.70;3.93;;;;;;;11.65;100.00;98582.75;4156521;28;21246;-87
2022/09/20 02:10:15;;;;;;;5.23;3.77;;;;;;;11.64;100.00;98582.84;4168896;28;20692;-87
2022/09/20 02:12:41;;;;;;;4.50;3.27;;;;;;;11.64;99.48;98593.28;4142403;28;20713;-87
2022/09/20 02:14:51;;;;;;;5.00;4.10;;;;;;;11.62;100.00;98579.47;4133479;28;20665;-87
2022/09/20 02:16:57;;;;;;;6.00;3.90;;;;;;;11.60;100.00;98582.19;4159977;28;20708;-87
2022/09/20 02:19:50;;;;;;;3.77;3.37;;;;;;;11.57;98.88;98579.78;4167657;28;20707;-87
2022/09/20 02:22:10;;;;;;;4.80;3.33;;;;;;;11.54;99.72;98577.34;4103001;28;20656;-86
2022/09/20 02:24:17;;;;;;;3.80;3.40;;;;;;;11.51;100.00;98572.31;4104849;28;20676;-87
2022/09/20 02:26:37;;;;;;;4.20;3.73;;;;;;;11.55;100.00;98583.44;4126438;28;20698;-86
2022/09/20 02:28:53;;;;;;;5.40;4.07;;;;;;;11.58;98.98;98583.25;4140069;28;21244;-86
2022/09/20 02:31:02;;;;;;;4.50;3.40;;;;;;;11.59;99.95;98585.75;4135841;28;20770;-86
2022/09/20 02:33:30;;;;;;;6.50;4.03;;;;;;;11.59;99.09;98583.16;4156643;28;20828;-87
2022/09/20 02:35:42;;;;;;;5.80;4.10;;;;;;;11.58;99.66;98588.47;4152232;28;21641;-87
2022/09/20 02:37:57;;;;;;;6.23;3.07;;;;;;;11.56;100.00;98580.72;4170784;28;20680;-87
2022/09/20 02:40:10;;;;;;;5.03;3.30;;;;;;;11.52;100.00;98584.47;4141288;28;20676;-87
2022/09/20 02:42:18;;;;;;;7.40;3.43;;;;;;;11.48;99.43;98585.59;4138129;28;20699;-87
2022/09/20 02:44:27;;;;;;;4.13;3.67;;;;;;;11.48;99.82;98582.16;4158366;28;20644;-87
2022/09/20 02:46:34;;;;;;;4.90;3.57;;;;;;;11.47;99.60;98586.53;4152783;28;21250;-87
2022/09/20 02:48:44;;;;;;;4.90;3.67;;;;;;;11.49;99.79;98583.84;4169671;28;20694;-87
2022/09/20 02:50:52;;;;;;;3.80;3.20;;;;;;;11.48;100.00;98585.59;4157888;28;20641;-87
2022/09/20 02:53:08;;;;;;;5.20;3.33;;;;;;;11.49;100.00;98579.44;4141651;28;20689;-86
2022/09/20 02:55:17;;;;;;;5.30;3.17;;;;;;;11.50;100.00;98582.88;4156213;28;20649;-87
2022/09/20 02:57:25;;;;;;;5.10;3.77;;;;;;;11.53;99.69;98591.38;4169934;28;20739;-87
2022/09/20 02:59:34;;;;;;;5.17;3.23;;;;;;;11.54;100.00;98592.19;4142145;28;20650;-87
2022/09/20 03:01:54;;;;;;;8.40;4.30;;;;;;;11.56;99.89;98598.16;4153164;28;21172;-87
2022/09/20 03:04:08;;;;;;;5.20;3.77;;;;;;;11.58;100.00;98593.69;4154160;28;20656;-87
2022/09/20 03:06:17;;;;;;;5.97;3.40;;;;;;;11.58;99.25;98598.91;4142644;28;20701;-87
2022/09/20 03:08:33;;;;;;;5.33;4.30;;;;;;;11.55;100.00;98601.72;4156596;28;20646;-86
2022/09/20 03:10:40;;;;;;;4.80;3.70;;;;;;;11.52;100.00;98597.53;4162367;28;20652;-87
2022/09/20 03:12:52;;;;;;;6.90;4.03;;;;;;;11.55;100.00;98599.13;4161297;28;20652;-86
2022/09/20 03:15:00;;;;;;;4.23;3.80;;;;;;;11.56;100.00;98600.78;4158057;28;21294;-86
2022/09/20 03:17:11;;;;;;;6.47;3.70;;;;;;;11.56;100.00;98606.00;4160890;28;20706;-87
2022/09/20 03:19:24;;;;;;;3.73;3.17;;;;;;;11.56;100.00;98603.38;4155222;28;20699;-87
2022/09/20 03:21:36;;;;;;;6.30;3.43;;;;;;;11.56;100.00;98606.00;4141102;28;20657;-87
2022/09/20 03:23:49;;;;;;;4.13;3.40;;;;;;;11.55;100.00;98602.56;4155891;28;21271;-87
2022/09/20 03:25:57;;;;;;;5.87;3.70;;;;;;;11.55;100.00;98605.16;4168227;28;20640;-87
2022/09/20 03:28:09;;;;;;;5.40;4.30;;;;;;;11.57;100.00;98602.44;4141765;28;20630;-87
2022/09/20 03:30:27;;;;;;;8.13;4.63;;;;;;;11.59;100.00;98603.19;4144100;28;20731;-87
2022/09/20 03:32:41;;;;;;;6.47;3.87;;;;;;;11.62;100.00;98605.59;4170975;28;20664;-87
2022/09/20 03:34:54;;;;;;;4.83;4.33;;;;;;;11.63;100.00;98604.69;4136189;28;20750;-87
2022/09/20 03:37:11;;;;;;;5.40;3.90;;;;;;;11.65;100.00;98608.00;4160184;28;20673;-87
2022/09/20 03:39:31;;;;;;;8.03;6.13;;;;;;;11.65;100.00;98610.63;4155575;28;21243;-87
2022/09/20 03:41:54;;;;;;;8.90;6.40;;;;;;;11.63;100.00;98607.28;4142007;28;21234;-87
2022/09/20 03:44:19;;;;;;;7.13;6.00;;;;;;;11.61;99.51;98609.16;4156129;28;20800;-87
2022/09/20 03:46:26;;;;;;;11.50;6.70;;;;;;;11.59;100.00;98611.88;4166500;28;20710;-87
2022/09/20 03:48:59;;;;;;;8.17;6.20;;;;;;;11.60;100.00;98608.31;4142556;28;20629;-87
2022/09/20 03:51:12;;;;;;;5.20;4.13;;;;;;;11.62;100.00;98602.97;4147624;28;20711;-87
2022/09/20 03:53:54;;;;;;;6.50;4.10;;;;;;;11.63;100.00;98607.28;4136461;28;20642;-87
2022/09/20 03:56:12;;;;;;;4.40;4.00;;;;;;;11.61;100.00;98607.38;4131684;28;20749;-87
2022/09/20 03:58:26;;;;;;;5.40;3.90;;;;;;;11.62;100.00;98613.44;4171823;28;20679;-87
2022/09/20 04:00:39;;;;;;;5.60;4.37;;;;;;;11.63;100.00;98610.72;4154842;28;21417;-86
2022/09/20 04:03:09;;;;;;;6.53;4.13;;;;;;;11.64;100.00;98609.81;4138118;28;20649;-86
2022/09/20 04:05:15;;;;;;;6.83;3.90;;;;;;;11.64;100.00;98611.59;4138251;28;20650;-87
2022/09/20 04:07:23;;;;;;;5.10;4.23;;;;;;;11.66;100.00;98617.53;4137571;28;20654;-86
2022/09/20 04:09:51;;;;;;;6.67;4.13;;;;;;;11.69;100.00;98617.34;4169402;28;20651;-87
2022/09/20 04:12:01;;;;;;;5.23;4.43;;;;;;;11.73;100.00;98621.41;4153850;28;20676;-87
2022/09/20 04:14:11;;;;;;;6.00;4.20;;;;;;;11.74;100.00;98620.50;4137621;28;20665;-87
2022/09/20 04:16:23;;;;;;;5.33;4.20;;;;;;;11.75;100.00;98623.84;4169880;28;20653;-87
2022/09/20 04:18:33;;;;;;;4.27;3.70;;;;;;;11.74;100.00;98612.66;4146404;28;21030;-87
2022/09/20 04:20:42;;;;;;;4.60;4.10;;;;;;;11.74;100.00;98620.50;4150978;28;20649;-87
2022/09/20 04:22:50;;;;;;;7.07;4.13;;;;;;;11.74;99.63;98620.50;4157027;28;20669;-87
2022/09/20 04:24:58;;;;;;;4.33;3.90;;;;;;;11.74;100.00;98620.50;4175564;28;21021;-87
2022/09/20 04:27:05;;;;;;;5.17;4.13;;;;;;;11.72;100.00;98614.53;4173841;28;20640;-87
2022/09/20 04:29:22;;;;;;;5.17;4.53;;;;;;;11.71;99.51;98621.50;4163044;28;20653;-87
2022/09/20 04:31:34;;;;;;;5.73;4.47;;;;;;;11.71;100.00;98620.69;4161508;28;20641;-87
2022/09/20 04:33:42;;;;;;;8.50;4.53;;;;;;;11.70;100.00;98626.84;4151413;28;20653;-86
2022/09/20 04:38:14;;;;;;;6.43;4.50;;;;;;;11.66;100.00;98628.00;4146039;28;20760;-86
2022/09/20 04:40:26;;;;;;;7.00;4.73;;;;;;;11.67;100.00;98629.69;4142027;28;20680;-84
2022/09/20 04:42:50;;;;;;;6.20;4.67;;;;;;;11.63;99.27;98626.41;4170649;28;20661;-85
2022/09/20 04:45:20;;;;;;;6.17;4.97;;;;;;;11.62;99.01;98621.28;4138992;28;20716;-84
2022/09/20 04:47:53;;;;;;;8.63;4.77;;;;;;;11.56;98.57;98619.91;4137078;28;20657;-85
2022/09/20 04:50:46;;;;;;;5.30;4.80;;;;;;;11.51;99.54;98623.75;4143609;28;20678;-85
2022/09/20 04:53:08;;;;;;;5.20;4.07;;;;;;;11.49;100.00;98630.84;4159039;28;20637;-85
2022/09/20 04:55:38;;;;;;;6.50;4.40;;;;;;;11.48;99.89;98637.00;4173972;28;21072;-85
2022/09/20 04:58:13;;;;;;;6.07;4.70;;;;;;;11.45;99.64;98639.75;4147193;28;20662;-85
2022/09/20 05:00:19;;;;;;;14.87;13.10;;;;;;;11.43;98.92;98644.25;4160430;28;20724;-85
2022/09/20 05:03:05;;;;;;;14.00;9.10;;;;;;;11.37;99.87;98642.03;4175182;28;20692;-85
2022/09/20 05:05:38;;;;;;;9.97;7.80;;;;;;;11.35;99.88;98654.31;4151452;28;20656;-86
2022/09/20 05:08:04;;;;;;;10.23;9.23;;;;;;;11.33;99.22;98656.19;4154653;28;21301;-86
2022/09/20 05:10:24;;;;;;;15.17;11.60;;;;;;;11.33;99.59;98656.19;4145663;28;20657;-85
2022/09/20 05:12:57;;;;;;;7.47;5.33;;;;;;;11.32;99.16;98657.13;4155499;28;21293;-85
2022/09/20 05:15:11;;;;;;;6.00;4.60;;;;;;;11.29;100.00;98652.94;4151986;28;20649;-85
2022/09/20 05:17:25;;;;;;;6.80;5.17;;;;;;;11.33;98.91;98649.19;4144962;28;21273;-85
2022/09/20 05:19:31;;;;;;;9.50;6.63;;;;;;;11.34;100.00;98658.72;4169001;28;21004;-85
2022/09/20 05:22:02;;;;;;;5.53;4.40;;;;;;;11.34;100.00;98663.09;4148491;28;20737;-85
2022/09/20 05:24:16;;;;;;;6.33;4.80;;;;;;;11.33;98.86;98661.44;4175120;28;20656;-85
2022/09/20 05:26:29;;;;;;;6.13;5.10;;;;;;;11.33;98.90;98664.03;4154947;28;20642;-85
2022/09/20 05:28:37;;;;;;;6.90;5.43;;;;;;;11.32;99.13;98664.97;4144977;28;20700;-85
2022/09/20 05:30:45;;;;;;;7.13;5.83;;;;;;;11.34;100.00;98665.72;4146972;28;20744;-85
2022/09/20 05:32:57;;;;;;;6.77;5.03;;;;;;;11.33;99.49;98664.03;4143815;28;20748;-85
2022/09/20 05:35:03;;;;;;;5.50;4.57;;;;;;;11.32;99.45;98665.81;4158537;28;20681;-85
2022/09/20 05:37:12;;;;;;;4.33;3.90;;;;;;;11.33;99.78;98666.66;4147301;28;20638;-85
2022/09/20 05:39:28;;;;;;;7.63;4.50;;;;;;;11.32;98.33;98660.59;4140888;28;20686;-85
2022/09/20 05:41:39;;;;;;;4.90;4.40;;;;;;;11.31;99.00;98665.91;4146706;28;21341;-84
2022/09/20 05:43:50;;;;;;;4.30;3.60;;;;;;;11.30;99.39;98664.22;4147365;28;20639;-85
2022/09/20 05:46:03;;;;;;;9.20;5.00;;;;;;;11.32;98.89;98670.19;4140560;28;20650;-84
2022/09/20 05:48:13;;;;;;;6.37;4.43;;;;;;;11.31;98.54;98665.91;4152892;28;20652;-84
2022/09/20 05:50:29;;;;;;;14.77;8.47;;;;;;;11.34;99.56;98673.56;4139136;28;20656;-84
2022/09/20 05:52:43;;;;;;;21.63;17.77;;;;;;;11.37;98.08;98673.38;4151882;28;20645;-85
2022/09/20 05:55:08;;;;;;;15.63;12.07;;;;;;;11.40;98.11;98681.84;4135164;28;20690;-85
2022/09/20 05:57:20;;;;;;;19.53;16.20;;;;;;;11.43;99.73;98673.81;4136669;28;20654;-85
2022/09/20 05:59:30;;;;;;;9.43;7.57;;;;;;;11.46;98.82;98683.25;4152698;28;20732;-84
2022/09/20 06:01:36;;;;;;;9.57;6.20;;;;;;;11.47;99.91;98685.78;4137000;28;20673;-84
2022/09/20 06:03:42;;;;;;;7.73;5.60;;;;;;;11.46;97.99;98685.84;4167405;28;20674;-84
2022/09/20 06:05:52;;;;;;;9.03;7.30;;;;;;;11.47;99.25;98692.78;4159623;28;20704;-84
2022/09/20 06:08:16;;;;;;;11.87;8.40;;;;;;;11.47;99.49;98685.78;4157265;28;20646;-84
2022/09/20 06:10:30;;;;;;;8.60;7.50;;;;;;;11.50;99.16;98687.34;4155895;28;20734;-85
2022/09/20 06:12:43;;;;;;;9.10;6.10;;;;;;;11.56;99.39;98686.97;4143288;28;20670;-84
2022/09/20 06:14:51;;;;;;;8.10;6.17;;;;;;;11.64;98.68;98692.59;4155467;28;20646;-85
2022/09/20 06:17:02;;;;;;;10.90;6.60;;;;;;;11.68;98.99;98702.75;4153507;28;21127;-87
2022/09/20 06:19:15;;;;;;;9.23;6.80;;;;;;;11.75;100.00;98695.34;4158487;28;20668;-85
2022/09/20 06:21:29;;;;;;;8.47;6.67;;;;;;;11.80;100.00;98697.56;4158876;28;20711;-87
2022/09/20 06:23:32;;;;;;;8.30;6.20;;;;;;;11.90;99.33;98700.44;4140628;28;20649;-87
2022/09/20 06:25:42;;;;;;;7.90;6.30;;;;;;;12.01;100.00;98703.19;4143416;28;20636;-87
2022/09/20 06:27:51;;;;;;;9.50;5.80;;;;;;;12.04;99.54;98703.00;4157456;28;20645;-87
2022/09/20 06:29:58;;;;;;;6.60;5.90;;;;;;;12.05;99.54;98700.28;4145140;28;20752;-87
2022/09/20 06:32:01;;;;;;;7.50;5.77;;;;;;;12.11;100.00;98705.13;4145153;28;20646;-87
2022/09/20 06:34:08;;;;;;;10.07;6.40;;;;;;;12.20;100.00;98708.94;4146673;28;21248;-87
2022/09/20 06:43:30;;;;;;;12.23;7.93;;;;;;;12.47;99.31;98708.78;4154597;28;20719;-87
2022/09/20 06:45:33;;;;;;;10.57;7.57;;;;;;;12.56;98.50;98709.97;4155173;28;21260;-87
2022/09/20 06:47:36;;;;;;;15.80;6.83;;;;;;;12.62;98.92;98713.00;4173642;28;20707;-87
2022/09/20 06:49:41;;;;;;;9.70;7.30;;;;;;;12.67;99.54;98713.53;4156213;28;20650;-87
2022/09/20 06:51:44;;;;;;;11.77;8.00;;;;;;;12.69;98.34;98709.06;4134009;28;20683;-88
2022/09/20 06:53:47;;;;;;;9.27;7.27;;;;;;;12.69;97.91;98715.13;4149510;28;20685;-86
2022/09/20 06:55:51;;;;;;;11.93;7.00;;;;;;;12.65;96.93;98717.22;4138893;28;20653;-87
2022/09/20 06:57:54;;;;;;;12.53;7.90;;;;;;;12.62;97.83;98713.00;4140967;28;20660;-87
2022/09/20 06:59:59;;;;;;;11.90;8.10;;;;;;;12.65;98.68;98717.22;4142450;28;20638;-86
2022/09/20 07:02:01;;;;;;;12.57;8.47;;;;;;;12.68;97.54;98716.03;4133564;28;20750;-86
2022/09/20 07:04:05;;;;;;;19.17;11.27;;;;;;;12.73;98.56;98715.72;4141783;28;20753;-87
2022/09/20 07:06:09;;;;;;;10.53;7.97;;;;;;;12.80;97.54;98714.41;4159487;28;20661;-87
2022/09/20 07:08:12;;;;;;;13.97;8.63;;;;;;;12.85;96.69;98709.72;4140876;28;20694;-87
2022/09/20 07:10:15;;;;;;;12.33;8.53;;;;;;;12.91;97.07;98717.16;4148951;28;20719;-87
2022/09/20 07:12:20;;;;;;;10.73;8.40;;;;;;;12.94;96.04;98715.16;4155875;28;20693;-87
2022/09/20 07:14:23;;;;;;;13.50;9.10;;;;;;;13.00;96.45;98721.78;4150479;28;20700;-87
2022/09/20 07:16:28;;;;;;;13.83;9.20;;;;;;;13.13;95.48;98720.84;4145415;28;20665;-88
2022/09/20 07:18:32;;;;;;;10.20;8.20;;;;;;;13.19;95.37;98718.63;4152670;28;20650;-87
2022/09/20 07:20:35;;;;;;;13.13;7.97;;;;;;;13.15;95.00;98726.78;4155522;28;20648;-87
2022/09/20 07:22:38;;;;;;;11.73;7.57;;;;;;;13.08;95.14;98729.94;4138946;28;20657;-87
2022/09/20 07:24:43;;;;;;;9.60;7.20;;;;;;;13.08;95.77;98730.78;4143528;28;20704;-88
2022/09/20 07:26:55;;;;;;;12.37;8.40;;;;;;;13.04;95.14;98729.31;4144526;28;20697;-87
2022/09/20 07:28:59;;;;;;;9.93;8.17;;;;;;;13.03;95.52;98730.25;4150003;28;20655;-87
2022/09/20 07:31:02;;;;;;;10.97;8.93;;;;;;;13.05;95.57;98724.91;4159633;28;20704;-87
2022/09/20 07:33:10;;;;;;;12.30;8.80;;;;;;;13.05;94.98;98732.75;4140655;28;20658;-87
2022/09/20 07:35:13;;;;;;;13.43;9.70;;;;;;;13.05;94.57;98733.63;4158506;28;20691;-87
2022/09/20 07:37:17;;;;;;;16.93;10.40;;;;;;;13.15;95.08;98731.22;4138069;28;20651;-88
2022/09/20 07:39:20;;;;;;;14.03;9.67;;;;;;;13.21;94.44;98740.34;4151334;28;20745;-87
2022/09/20 07:41:23;;;;;;;13.30;9.20;;;;;;;13.27;93.78;98739.06;4150867;28;20669;-87
2022/09/20 07:43:26;;;;;;;17.50;9.00;;;;;;;13.41;94.38;98747.66;4156647;28;20757;-87
2022/09/20 07:45:30;;;;;;;13.53;9.33;;;;;;;13.63;94.88;98752.25;4155743;28;20660;-87
2022/09/20 07:47:34;;;;;;;13.70;9.80;;;;;;;13.93;94.46;98754.38;4148571;28;20757;-87
2022/09/20 07:49:38;;;;;;;15.80;10.50;;;;;;;14.03;93.13;98755.41;4166785;28;21243;-87
2022/09/20 07:51:41;;;;;;;16.87;8.87;;;;;;;14.01;93.00;98759.94;4141564;28;20742;-87
2022/09/20 07:53:44;;;;;;;11.53;8.77;;;;;;;14.01;92.12;98761.69;4148446;28;20731;-87
2022/09/20 07:55:58;;;;;;;17.43;8.90;;;;;;;14.07;91.16;98759.50;4150000;28;20658;-87
2022/09/20 07:58:01;;;;;;;12.07;8.30;;;;;;;14.04;90.72;98758.84;4130760;28;21328;-87
2022/09/20 08:00:07;;;;;;;10.77;8.17;;;;;;;13.96;90.19;98756.75;4145232;28;20657;-87
2022/09/20 08:02:14;;;;;;;11.57;8.23;;;;;;;13.90;90.75;98759.00;4164503;28;20676;-86
2022/09/20 08:04:18;;;;;;;13.00;8.53;;;;;;;14.11;90.77;98754.88;4132866;28;20667;-86
2022/09/20 08:06:22;;;;;;;12.67;8.80;;;;;;;14.58;91.64;98768.84;4147791;28;20693;-87
2022/09/20 08:08:25;;;;;;;10.63;7.80;;;;;;;14.96;89.00;98779.03;4152288;28;21050;-87
2022/09/20 08:10:28;;;;;;;11.67;7.50;;;;;;;15.28;86.33;98777.47;4151070;28;20657;-87
2022/09/20 08:12:31;;;;;;;9.90;7.80;;;;;;;15.51;85.83;98776.53;4146095;28;20662;-85
2022/09/20 08:14:54;;;;;;;11.10;7.80;;;;;;;15.36;86.55;98782.97;4164002;28;20689;-86
2022/09/20 08:16:59;;;;;;;13.53;7.27;;;;;;;15.22;84.28;98777.94;4139512;28;20643;-85
2022/09/20 08:19:02;;;;;;;14.27;7.30;;;;;;;15.09;85.84;98780.63;4148601;28;20663;-86
2022/09/20 08:21:07;;;;;;;10.13;7.00;;;;;;;15.28;84.77;98773.03;4132170;28;20706;-85
2022/09/20 08:23:11;;;;;;;10.47;7.50;;;;;;;15.66;81.77;98790.16;4149531;28;20647;-86
2022/09/20 08:25:25;;;;;;;14.23;7.20;;;;;;;15.64;82.37;98778.09;4150143;28;20804;-86
2022/09/20 08:27:28;;;;;;;6.93;5.63;;;;;;;15.54;82.86;98781.56;4134279;28;20647;-86
2022/09/20 08:29:31;;;;;;;8.67;5.40;;;;;;;15.38;81.70;98775.78;4142893;28;20653;-86
2022/09/20 08:31:37;;;;;;;8.10;6.90;;;;;;;15.32;82.64;98778.91;4164196;28;20678;-86
2022/09/20 08:33:41;;;;;;;9.73;5.90;;;;;;;15.40;83.36;98772.09;4168591;28;20757;-86
2022/09/20 08:35:48;;;;;;;10.13;6.13;;;;;;;15.52;84.29;98776.44;4152215;28;21278;-86
2022/09/20 08:37:54;;;;;;;10.23;6.00;;;;;;;15.56;82.42;98776.06;4146575;28;20766;-88
2022/09/20 08:39:59;;;;;;;9.10;6.23;;;;;;;15.82;83.36;98777.50;4138699;28;20692;-86
2022/09/20 08:42:11;;;;;;;9.33;5.40;;;;;;;15.85;79.71;98774.63;4141445;28;20767;-87
2022/09/20 08:44:17;;;;;;;10.43;5.80;;;;;;;16.05;80.87;98776.53;4142044;28;20734;-86
2022/09/20 08:46:23;;;;;;;12.13;6.07;;;;;;;16.31;80.79;98780.59;4147125;28;21288;-87
2022/09/20 08:48:31;;;;;;;10.47;5.67;;;;;;;16.57;82.76;98783.63;4150346;28;20675;-87
2022/09/20 08:50:34;;;;;;;12.37;5.00;;;;;;;16.65;81.34;98781.19;4147727;28;20655;-87
2022/09/20 08:52:38;;;;;;;8.40;6.37;;;;;;;16.55;80.62;98774.16;4154448;28;20777;-87
2022/09/20 08:54:43;;;;;;;36.80;29.70;;;;;;;16.57;81.09;98775.72;4139308;28;20780;-87
2022/09/20 08:56:48;;;;;;;12.17;4.93;;;;;;;16.89;83.05;98773.09;4149402;28;20652;-88
2022/09/20 08:58:52;;;;;;;8.57;4.57;;;;;;;17.02;78.42;98767.50;4146136;28;20658;-87
2022/09/20 09:00:57;;;;;;;9.27;4.00;;;;;;;16.91;77.64;98772.00;4151371;28;20752;-86
2022/09/20 09:03:05;;;;;;;6.53;3.70;;;;;;;16.56;75.90;98760.88;4148575;28;20718;-86
2022/09/20 09:05:25;;;;;;;4.33;3.10;;;;;;;16.26;77.78;98759.06;4156532;28;20670;-87
2022/09/20 09:07:29;;;;;;;9.33;4.00;;;;;;;16.05;79.61;98758.09;4143632;28;20664;-87
2022/09/20 09:09:34;;;;;;;9.83;3.83;;;;;;;15.87;80.39;98753.47;4143210;28;20658;-86
2022/09/20 09:11:40;;;;;;;8.27;4.73;;;;;;;15.69;79.18;98754.91;4157088;28;20671;-87
2022/09/20 09:13:53;;;;;;;7.03;3.97;;;;;;;15.58;81.91;98741.78;4173990;28;20708;-86
2022/09/20 09:15:59;;;;;;;8.03;3.30;;;;;;;15.51;79.65;98747.63;4140663;28;20632;-86
2022/09/20 09:18:03;;;;;;;7.87;2.90;;;;;;;15.40;78.04;98752.88;4163098;28;20696;-87
2022/09/20 09:20:17;;;;;;;6.90;2.70;;;;;;;15.53;80.73;98748.31;4156187;28;21258;-84
2022/09/20 09:22:23;;;;;;;6.60;2.23;;;;;;;16.01;79.22;98754.03;4154315;28;21053;-84
2022/09/20 09:24:26;;;;;;;4.03;2.20;;;;;;;16.41;76.02;98756.03;4135663;28;20652;-85
2022/09/20 09:26:36;;;;;;;6.93;2.70;;;;;;;16.62;75.84;98756.91;4159579;28;20659;-86
2022/09/20 09:28:39;;;;;;;9.63;2.30;;;;;;;16.56;76.14;98749.50;4164644;28;20691;-85
2022/09/20 09:30:46;;;;;;;7.07;2.83;;;;;;;16.37;74.21;98753.75;4144818;28;20764;-85
2022/09/20 09:32:49;;;;;;;7.33;2.33;;;;;;;16.18;75.10;98756.19;4156573;28;20667;-85
2022/09/20 09:34:52;;;;;;;6.10;2.20;;;;;;;16.11;75.91;98752.34;4160052;28;20646;-85
2022/09/20 09:36:56;;;;;;;6.60;2.20;;;;;;;16.05;74.23;98747.59;4147867;28;20652;-86
2022/09/20 09:39:16;;;;;;;5.60;2.07;;;;;;;15.95;74.84;98741.41;4148950;28;20695;-86
2022/09/20 09:41:24;;;;;;;4.90;2.20;;;;;;;16.01;73.68;98745.31;4139961;28;20700;-86
2022/09/20 09:43:31;;;;;;;7.43;2.30;;;;;;;16.34;76.20;98754.88;4154226;28;20654;-86
2022/09/20 09:45:37;;;;;;;5.00;2.30;;;;;;;16.71;75.81;98743.00;4151362;28;20648;-86
2022/09/20 09:47:41;;;;;;;5.90;2.60;;;;;;;16.95;73.90;98741.78;4140665;28;20669;-86
2022/09/20 09:49:56;;;;;;;5.20;2.20;;;;;;;17.19;71.49;98750.28;4156177;28;20652;-86
2022/09/20 09:52:13;;;;;;;3.90;2.30;;;;;;;17.42;72.57;98746.56;4139526;28;20661;-87
2022/09/20 09:54:18;;;;;;;4.60;2.27;;;;;;;17.62;68.32;98747.38;4132253;28;21057;-86
2022/09/20 09:56:32;;;;;;;5.70;2.27;;;;;;;17.67;69.36;98742.53;4165913;28;20637;-86
2022/09/20 09:58:45;;;;;;;5.80;2.20;;;;;;;17.76;67.79;98748.81;4136804;28;20658;-86
2022/09/20 10:00:49;;;;;;;9.40;3.40;;;;;;;17.68;64.91;98740.72;4152835;28;21242;-86
2022/09/20 10:03:11;;;;;;;3.60;1.27;;;;;;;17.64;63.88;98736.69;4144545;28;21231;-86
2022/09/20 10:05:17;;;;;;;5.10;2.33;;;;;;;17.63;62.42;98730.56;4143458;28;20668;-86
2022/09/20 10:07:24;;;;;;;5.23;1.60;;;;;;;17.55;64.03;98724.28;4155719;28;21001;-86
2022/09/20 10:09:38;;;;;;;6.03;2.03;;;;;;;17.37;64.04;98731.13;4144086;28;20713;-86
2022/09/20 10:11:57;;;;;;;5.07;2.03;;;;;;;17.15;67.10;98727.78;4142019;28;20653;-86
2022/09/20 10:14:09;;;;;;;6.20;2.67;;;;;;;17.00;67.60;98734.31;4138748;28;20657;-86
2022/09/20 10:16:16;;;;;;;4.47;2.23;;;;;;;16.91;68.17;98721.91;4159457;28;20644;-86
2022/09/20 10:18:31;;;;;;;6.00;1.57;;;;;;;16.89;67.22;98730.94;4149786;28;20634;-86
2022/09/20 10:20:51;;;;;;;5.43;2.00;;;;;;;16.75;66.38;98726.81;4141790;28;20756;-86
2022/09/20 10:23:02;;;;;;;8.67;2.10;;;;;;;16.73;67.83;98725.25;4158014;28;20663;-86